createdAt,value
2019-01-11T00:05:29.920Z,88.48
2019-01-11T00:08:30.634Z,88.47
2019-01-11T00:14:11.103Z,88.48
2019-01-11T00:19:19.632Z,88.48
2019-01-11T00:21:23.562Z,88.47
2019-01-11T00:34:13.005Z,88.49
2019-01-11T00:43:37.357Z,88.48
2019-01-11T01:18:51.473Z,88.51
2019-01-11T01:27:30.780Z,88.49
2019-01-11T01:50:33.316Z,88.50
2019-01-11T02:02:37.250Z,88.52
2019-01-11T02:05:31.638Z,88.51
2019-01-11T02:08:54.288Z,88.52
2019-01-11T02:12:30.224Z,88.52
2019-01-11T02:28:32.474Z,88.52
2019-01-11T02:31:16.533Z,88.54
2019-01-11T02:35:26.527Z,88.54
2019-01-11T02:37:36.182Z,88.54
2019-01-11T02:44:23.497Z,88.52
2019-01-11T03:05:49.236Z,88.55
2019-01-11T03:06:29.447Z,88.56
2019-01-11T05:28:44.062Z,88.72
2019-01-11T05:38:28.308Z,88.71
2019-01-11T05:42:01.560Z,88.74
2019-01-11T06:01:16.849Z,88.75
2019-01-11T06:14:39.247Z,88.74
2019-01-11T06:37:10.134Z,88.77
2019-01-11T06:58:04.392Z,88.80
2019-01-11T07:11:37.780Z,88.81
2019-01-11T07:14:53.996Z,88.82
2019-01-11T07:21:29.696Z,88.82
2019-01-11T07:23:58.503Z,88.77
2019-01-11T07:30:27.290Z,88.78
2019-01-11T07:34:33.372Z,88.78
2019-01-11T07:37:05.323Z,88.79
2019-01-11T07:40:12.314Z,88.78
2019-01-11T07:49:03.067Z,88.77
2019-01-11T07:51:54.070Z,88.75
2019-01-11T07:58:07.804Z,88.77
2019-01-11T08:00:59.678Z,88.78
2019-01-11T08:04:39.240Z,88.74
2019-01-11T08:07:37.113Z,88.75
2019-01-11T08:20:15.412Z,88.76
2019-01-11T08:23:20.777Z,88.77
2019-01-11T08:26:36.494Z,88.75
2019-01-11T08:44:44.637Z,88.80
2019-01-11T08:55:08.347Z,88.81
2019-01-11T08:57:38.653Z,88.81
2019-01-11T09:00:12.846Z,88.81
2019-01-11T09:02:46.773Z,88.79
2019-01-11T09:05:27.089Z,88.82
2019-01-11T09:07:57.841Z,88.83
2019-01-11T09:17:53.511Z,88.83
2019-01-11T09:21:20.306Z,88.85
2019-01-11T09:28:00.435Z,88.91
2019-01-11T09:34:11.674Z,88.89
2019-01-11T09:50:53.480Z,88.96
2019-01-11T09:53:55.594Z,88.97
2019-01-11T10:09:14.480Z,88.96
2019-01-11T10:19:00.927Z,89.00
2019-01-11T10:25:19.956Z,88.99
2019-01-11T10:36:19.974Z,89.00
2019-01-11T10:39:21.160Z,88.99
2019-01-11T10:45:56.892Z,88.97
2019-01-11T10:48:33.802Z,88.97
2019-01-11T10:51:40.175Z,89.02
2019-01-11T11:00:59.482Z,89.04
2019-01-11T11:07:13.519Z,89.15
2019-01-11T11:10:07.056Z,89.16
2019-01-11T11:13:14.411Z,89.20
2019-01-11T11:16:32.873Z,89.19
2019-01-11T11:19:27.064Z,89.28
2019-01-11T11:22:35.258Z,89.19
2019-01-11T11:25:41.311Z,89.16
2019-01-11T11:28:35.882Z,89.29
2019-01-11T11:31:48.427Z,89.28
2019-01-11T11:35:11.545Z,89.28
2019-01-11T11:38:19.936Z,89.06
2019-01-11T11:41:10.946Z,88.94
2019-01-11T11:43:46.546Z,88.94
2019-01-11T11:49:40.974Z,89.18
2019-01-11T11:52:40.888Z,89.23
2019-01-11T11:55:40.005Z,89.33
2019-01-11T11:58:36.787Z,89.18
2019-01-11T12:05:38.748Z,89.56
2019-01-11T12:07:41.551Z,89.50
2019-01-11T12:10:50.222Z,89.40
2019-01-11T12:14:11.842Z,89.33
2019-01-11T12:16:48.717Z,89.40
2019-01-11T12:23:10.551Z,89.16
2019-01-11T12:26:33.586Z,89.12
2019-01-11T12:29:17.210Z,89.09
2019-01-11T12:31:57.521Z,89.06
2019-01-11T12:34:30.902Z,89.03
2019-01-11T12:37:01.808Z,89.03
2019-01-11T12:46:29.598Z,88.95
2019-01-11T12:49:34.833Z,88.90
2019-01-11T12:52:19.486Z,88.92
2019-01-11T12:58:40.031Z,88.84
2019-01-11T13:01:32.071Z,88.83
2019-01-11T13:04:14.480Z,88.82
2019-01-11T13:10:27.506Z,88.80
2019-01-11T13:16:35.908Z,88.78
2019-01-11T13:22:56.024Z,88.72
2019-01-11T13:29:43.324Z,88.67
2019-01-11T13:30:58.741Z,88.66
2019-01-11T13:43:00.923Z,88.59
2019-01-11T13:46:00.765Z,88.56
2019-01-11T13:49:15.672Z,88.56
2019-01-11T13:52:12.919Z,88.51
2019-01-11T13:55:50.023Z,88.50
2019-01-11T14:01:36.349Z,88.46
2019-01-11T14:05:13.676Z,88.41
2019-01-11T14:07:56.704Z,88.40
2019-01-11T14:13:22.848Z,88.36
2019-01-11T14:16:40.025Z,88.33
2019-01-11T14:19:41.139Z,88.31
2019-01-11T14:28:33.532Z,88.25
2019-01-11T14:31:09.889Z,88.23
2019-01-11T14:39:24.060Z,88.20
2019-01-11T14:41:04.779Z,88.15
2019-01-11T14:44:09.703Z,88.15
2019-01-11T14:50:31.515Z,88.09
2019-01-11T14:56:46.258Z,88.03
2019-01-11T15:00:08.687Z,88.03
2019-01-11T15:03:32.376Z,88.00
2019-01-11T15:07:21.448Z,87.96
2019-01-11T15:12:48.922Z,87.90
2019-01-11T15:15:23.449Z,87.90
2019-01-11T15:17:53.942Z,87.88
2019-01-11T15:20:24.328Z,87.88
2019-01-11T15:22:59.913Z,87.84
2019-01-11T15:25:33.921Z,87.82
2019-01-11T15:28:09.101Z,87.79
2019-01-11T15:30:39.484Z,87.80
2019-01-11T15:33:13.723Z,87.79
2019-01-11T15:35:50.867Z,87.77
2019-01-11T15:38:24.758Z,87.77
2019-01-11T15:40:55.130Z,87.73
2019-01-11T15:43:25.639Z,87.73
2019-01-11T15:46:07.584Z,87.70
2019-01-11T15:48:49.104Z,87.68
2019-01-11T15:51:28.158Z,87.64
2019-01-11T15:53:59.980Z,87.62
2019-01-11T15:56:33.092Z,87.60
2019-01-11T15:59:03.602Z,87.59
2019-01-11T16:01:38.576Z,87.56
2019-01-11T16:04:10.614Z,87.55
2019-01-11T16:06:43.716Z,87.53
2019-01-11T16:10:04.165Z,87.50
2019-01-11T16:12:51.411Z,87.51
2019-01-11T16:15:49.864Z,87.47
2019-01-11T16:18:34.808Z,87.45
2019-01-11T16:21:14.792Z,87.43
2019-01-11T16:23:45.178Z,87.43
2019-01-11T16:26:17.777Z,87.38
2019-01-11T16:28:51.306Z,87.36
2019-01-11T16:31:24.271Z,87.35
2019-01-11T16:33:55.359Z,87.30
2019-01-11T16:36:37.522Z,87.29
2019-01-11T16:39:10.914Z,87.26
2019-01-11T16:41:42.790Z,87.27
2019-01-11T16:44:17.655Z,87.24
2019-01-11T16:46:48.037Z,87.22
2019-01-11T16:49:20.798Z,87.22
2019-01-11T16:51:51.450Z,87.20
2019-01-11T16:54:22.287Z,87.20
2019-01-11T16:56:52.883Z,87.16
2019-01-11T16:59:25.115Z,87.15
2019-01-11T17:01:59.529Z,87.14
2019-01-11T17:04:31.705Z,87.10
2019-01-11T17:07:07.658Z,87.09
2019-01-11T17:09:36.645Z,87.07
2019-01-11T17:12:09.123Z,87.04
2019-01-11T17:14:42.676Z,87.01
2019-01-11T17:17:13.328Z,86.98
2019-01-11T17:19:43.938Z,86.99
2019-01-11T17:22:16.725Z,86.97
2019-01-11T17:24:50.277Z,86.92
2019-01-11T17:27:22.007Z,86.91
2019-01-11T17:29:57.402Z,86.87
2019-01-11T17:32:28.568Z,86.88
2019-01-11T17:35:01.554Z,86.87
2019-01-11T17:37:31.972Z,86.85
2019-01-11T17:40:02.390Z,86.81
2019-01-11T17:42:34.538Z,86.81
2019-01-11T17:45:06.820Z,86.80
2019-01-11T17:47:39.255Z,86.75
2019-01-11T17:50:18.302Z,86.75
2019-01-11T17:52:49.087Z,86.72
2019-01-11T17:55:19.561Z,86.72
2019-01-11T17:57:52.481Z,86.68
2019-01-11T18:00:23.878Z,86.66
2019-01-11T18:03:02.664Z,86.68
2019-01-11T18:05:33.383Z,86.64
2019-01-11T18:08:04.072Z,86.62
2019-01-11T18:10:34.795Z,86.60
2019-01-11T18:13:05.804Z,86.57
2019-01-11T18:15:39.279Z,86.55
2019-01-11T18:18:10.181Z,86.53
2019-01-11T18:20:42.679Z,86.53
2019-01-11T18:23:19.675Z,86.52
2019-01-11T18:25:57.552Z,86.53
2019-01-11T18:28:30.146Z,86.50
2019-01-11T18:31:00.926Z,86.48
2019-01-11T18:36:54.214Z,86.45
2019-01-11T18:39:30.241Z,86.42
2019-01-11T18:48:11.825Z,86.39
2019-01-11T18:55:14.817Z,86.30
2019-01-11T19:03:15.410Z,86.23
2019-01-11T19:10:10.730Z,86.22
2019-01-11T19:16:49.178Z,86.16
2019-01-11T19:19:26.324Z,86.16
2019-01-11T19:22:04.492Z,86.12
2019-01-11T19:24:40.818Z,86.11
2019-01-11T19:27:11.800Z,86.10
2019-01-11T19:29:42.845Z,86.07
2019-01-11T19:32:19.506Z,86.05
2019-01-11T19:51:39.875Z,85.95
2019-01-11T20:01:52.447Z,85.86
2019-01-11T20:04:38.780Z,85.85
2019-01-11T20:12:40.555Z,85.79
2019-01-11T20:15:48.750Z,85.80
2019-01-11T20:24:24.606Z,85.73
2019-01-11T20:27:35.611Z,85.72
2019-01-11T20:33:58.031Z,85.66
2019-01-11T20:40:39.520Z,85.61
2019-01-11T21:46:05.687Z,85.28
2019-01-11T21:48:26.668Z,85.27
2019-01-11T21:50:57.140Z,85.26
2019-01-11T21:53:30.859Z,85.25
2019-01-11T22:21:25.405Z,85.12
2019-01-11T22:24:25.675Z,85.10
2019-01-11T22:27:33.032Z,85.08
2019-01-11T22:35:09.552Z,85.04
2019-01-11T22:49:25.100Z,84.98
2019-01-11T22:52:05.672Z,84.94
2019-01-11T23:02:49.541Z,84.90
2019-01-11T23:04:50.863Z,84.89
2019-01-11T23:15:00.447Z,84.84
2019-01-11T23:18:18.787Z,84.82
2019-01-11T23:21:06.069Z,84.82
2019-01-11T23:24:07.891Z,84.80
2019-01-11T23:30:07.764Z,84.78
2019-01-11T23:32:49.881Z,84.74
2019-01-11T23:35:42.676Z,84.75
2019-01-11T23:38:28.300Z,84.73
2019-01-11T23:41:36.725Z,84.71
2019-01-11T23:45:16.080Z,84.69
2019-01-11T23:47:17.278Z,84.68
2019-01-11T23:50:17.424Z,84.65
2019-01-11T23:52:58.415Z,84.65
2019-01-11T23:55:36.454Z,84.62
2019-01-11T23:58:19.712Z,84.60
